Eunola, Alabama
Current Conditions -  °F | °C
As of 5:15 PM on Thursday 27 Nov 2014 (Local Time) from KEDN Reporting Station
Clear Clear  
Wind Chill: 44°   Ceiling: Unl
Heat Index: 46°   Visibility: 10mi
Dew Point: 32°   Wind: 5mph
Humidity: 57%   Direction: 340°NNW
Pressure: 30.36"   Gusts: NA
Location:  31.0669°N, 85.9172°W
Report Text: KEDN 272315Z AUTO 34004KT 10SM CLR 08/00 A3036 RMK AO2
Loading
Personal Weather Stations






























Interactive Weather Map New forecast layout! Learn more

10-Day Weather Forecast

Advertisements
Track Severe Weather on mobile